Time;durP1;ratioP1;P1;durP2;ratioP2;P2;SDS_P1;SDS_P2;PMS_P1;PMS_P2;Temp;Humidity;BMP_temperature;BMP_pressure;BME280_temperature;BME280_humidity;BME280_pressure;Samples;Min_cycle;Max_cycle;Signal;HPM_P1;HPM_P2
2022/10/23 00:01:12;;;;;;;4.53;2.63;;;;;;;12.05;100.00;100453.63;5070534;28;20170;-76
2022/10/23 00:03:37;;;;;;;3.77;0.53;;;;;;;12.10;100.00;100464.41;5070174;28;20178;-77
2022/10/23 00:06:06;;;;;;;0.50;0.17;;;;;;;12.14;100.00;100462.63;5070451;28;20184;-77
2022/10/23 00:08:31;;;;;;;0.20;0.20;;;;;;;12.21;100.00;100466.50;5070515;28;20181;-77
2022/10/23 00:10:57;;;;;;;0.00;0.00;;;;;;;12.29;100.00;100466.81;5070504;28;20402;-77
2022/10/23 00:13:22;;;;;;;0.07;0.00;;;;;;;12.34;100.00;100459.28;5070507;28;20257;-77
2022/10/23 00:15:47;;;;;;;1.57;1.47;;;;;;;12.40;100.00;100465.38;5070120;28;20226;-78
2022/10/23 00:18:12;;;;;;;0.10;0.10;;;;;;;12.46;100.00;100456.69;5070398;28;20240;-77
2022/10/23 00:20:38;;;;;;;0.43;0.43;;;;;;;12.50;100.00;100456.84;5070635;28;20210;-77
2022/10/23 00:23:03;;;;;;;0.40;0.40;;;;;;;12.54;100.00;100454.25;5070486;28;20203;-77
2022/10/23 00:25:29;;;;;;;0.33;0.33;;;;;;;12.54;100.00;100457.00;5070278;28;20174;-77
2022/10/23 00:27:54;;;;;;;0.00;0.00;;;;;;;12.59;100.00;100457.66;5070060;28;20618;-77
2022/10/23 00:30:19;;;;;;;0.20;0.20;;;;;;;12.54;100.00;100463.28;5070543;28;20174;-77
2022/10/23 00:32:45;;;;;;;0.30;0.30;;;;;;;12.52;100.00;100462.78;5070284;28;20182;-77
2022/10/23 00:35:10;;;;;;;0.00;0.00;;;;;;;12.49;100.00;100464.25;5070181;28;20174;-77
2022/10/23 00:37:35;;;;;;;6.10;1.60;;;;;;;12.44;100.00;100455.38;5070008;28;20186;-77
2022/10/23 00:40:01;;;;;;;0.00;0.00;;;;;;;12.44;100.00;100460.84;5070409;28;20171;-77
2022/10/23 00:42:26;;;;;;;0.40;0.40;;;;;;;12.41;100.00;100458.78;5070700;28;20240;-77
2022/10/23 00:44:51;;;;;;;0.00;0.00;;;;;;;12.43;100.00;100457.31;5073724;28;20700;-76
2022/10/23 00:47:17;;;;;;;0.33;0.20;;;;;;;12.40;100.00;100468.94;5073544;28;20619;-77
2022/10/23 00:49:42;;;;;;;0.00;0.00;;;;;;;12.35;100.00;100463.63;5074178;28;20178;-77
2022/10/23 00:52:10;;;;;;;0.00;0.00;;;;;;;12.35;100.00;100449.91;5076813;28;20597;-76
2022/10/23 00:54:38;;;;;;;0.00;0.00;;;;;;;12.30;100.00;100452.03;5074887;28;20249;-76
2022/10/23 00:57:06;;;;;;;0.00;0.00;;;;;;;12.24;100.00;100447.81;5073579;28;20181;-77
2022/10/23 00:59:32;;;;;;;0.30;0.30;;;;;;;12.20;100.00;100444.94;5073745;28;20187;-77
2022/10/23 01:01:58;;;;;;;0.00;0.00;;;;;;;12.19;100.00;100446.06;5073564;28;20202;-76
2022/10/23 01:04:25;;;;;;;0.10;0.10;;;;;;;12.20;100.00;100439.44;5073051;28;20185;-77
2022/10/23 01:07:15;;;;;;;0.00;0.00;;;;;;;12.15;100.00;100442.31;5073525;28;20209;-77
2022/10/23 01:10:05;;;;;;;0.00;0.00;;;;;;;12.16;100.00;100435.75;5073574;28;20200;-77
2022/10/23 01:12:38;;;;;;;0.27;0.27;;;;;;;12.07;100.00;100437.66;5073190;28;20175;-77
2022/10/23 01:15:04;;;;;;;0.53;0.53;;;;;;;11.99;100.00;100449.41;5073379;28;20175;-77
2022/10/23 01:17:40;;;;;;;0.00;0.00;;;;;;;11.91;100.00;100443.63;5073233;28;20236;-76
2022/10/23 01:20:27;;;;;;;0.00;0.00;;;;;;;11.88;100.00;100436.03;5055525;28;20170;-77
2022/10/23 01:23:11;;;;;;;0.00;0.00;;;;;;;11.87;100.00;100436.38;5073238;28;20217;-77
2022/10/23 01:26:11;;;;;;;0.40;0.20;;;;;;;11.81;100.00;100432.16;5073000;28;20213;-76
2022/10/23 01:28:51;;;;;;;1.67;0.97;;;;;;;11.76;100.00;100438.56;5073174;28;20562;-77
2022/10/23 01:31:40;;;;;;;0.00;0.00;;;;;;;11.78;100.00;100430.84;5073111;28;20158;-77
2022/10/23 01:34:12;;;;;;;1.20;1.10;;;;;;;11.82;100.00;100428.28;5072042;28;20187;-76
2022/10/23 01:36:40;;;;;;;0.87;0.80;;;;;;;11.83;100.00;100416.22;5072765;28;20202;-76
2022/10/23 01:39:10;;;;;;;0.20;0.20;;;;;;;11.98;100.00;100420.41;5073466;28;20163;-76
2022/10/23 01:41:51;;;;;;;0.17;0.17;;;;;;;11.99;100.00;100405.59;5073032;28;20226;-76
2022/10/23 01:44:22;;;;;;;0.00;0.00;;;;;;;11.95;100.00;100407.38;5072653;28;20170;-77
2022/10/23 01:46:49;;;;;;;0.00;0.00;;;;;;;11.95;100.00;100402.69;5072610;28;20177;-77
2022/10/23 01:49:16;;;;;;;0.63;0.63;;;;;;;11.93;100.00;100393.19;5072734;28;20261;-76
2022/10/23 01:51:47;;;;;;;1.70;1.30;;;;;;;11.95;100.00;100383.53;5072721;28;20637;-77
2022/10/23 01:54:15;;;;;;;0.00;0.00;;;;;;;11.99;100.00;100391.91;5072158;28;20568;-77
2022/10/23 01:56:45;;;;;;;0.00;0.00;;;;;;;11.72;100.00;100398.47;5072110;28;20170;-76
2022/10/23 01:59:18;;;;;;;0.00;0.00;;;;;;;11.62;100.00;100400.38;5072511;28;20244;-76
2022/10/23 02:01:46;;;;;;;0.00;0.00;;;;;;;11.51;100.00;100393.59;5072511;28;20305;-76
2022/10/23 02:04:17;;;;;;;0.00;0.00;;;;;;;11.69;100.00;100407.31;5072492;28;20175;-77
2022/10/23 02:06:42;;;;;;;0.00;0.00;;;;;;;11.75;100.00;100417.81;5072206;28;20190;-76
2022/10/23 02:09:08;;;;;;;0.00;0.00;;;;;;;11.75;100.00;100404.13;5072406;28;20175;-76
2022/10/23 02:11:43;;;;;;;0.60;0.60;;;;;;;11.70;100.00;100411.66;5072121;28;20186;-76
2022/10/23 02:14:21;;;;;;;0.00;0.00;;;;;;;11.60;100.00;100404.56;5072478;28;20162;-76
2022/10/23 02:16:51;;;;;;;0.00;0.00;;;;;;;11.58;100.00;100404.91;5071844;28;20163;-75
2022/10/23 02:19:20;;;;;;;0.00;0.00;;;;;;;11.49;100.00;100392.31;5072327;28;20225;-77
2022/10/23 02:21:51;;;;;;;0.00;0.00;;;;;;;11.54;100.00;100394.88;5072267;28;20339;-76
2022/10/23 02:24:21;;;;;;;0.40;0.40;;;;;;;11.58;100.00;100385.75;5071950;28;20166;-76
2022/10/23 02:26:56;;;;;;;0.00;0.00;;;;;;;11.60;100.00;100391.69;5072078;28;20550;-76
2022/10/23 02:29:45;;;;;;;0.00;0.00;;;;;;;11.66;100.00;100386.88;5072091;28;20178;-76
2022/10/23 02:32:13;;;;;;;0.00;0.00;;;;;;;11.54;100.00;100386.69;5072235;28;20473;-77
2022/10/23 02:34:38;;;;;;;0.00;0.00;;;;;;;11.33;100.00;100375.53;5071879;28;20178;-77
2022/10/23 02:37:04;;;;;;;0.00;0.00;;;;;;;11.33;100.00;100384.56;5071875;28;20178;-77
2022/10/23 02:39:29;;;;;;;0.00;0.00;;;;;;;11.23;100.00;100384.84;5068120;28;20274;-76
2022/10/23 02:42:13;;;;;;;0.00;0.00;;;;;;;11.12;100.00;100379.97;5065985;28;20208;-76
2022/10/23 02:44:42;;;;;;;0.13;0.13;;;;;;;11.14;100.00;100383.19;5067328;28;20179;-77
2022/10/23 02:47:28;;;;;;;0.00;0.00;;;;;;;11.03;100.00;100378.03;5071834;28;20166;-77
2022/10/23 02:50:12;;;;;;;0.00;0.00;;;;;;;10.81;100.00;100375.34;5072097;28;20551;-76
2022/10/23 02:52:48;;;;;;;0.00;0.00;;;;;;;10.72;100.00;100367.13;5071929;28;20167;-76
2022/10/23 02:55:29;;;;;;;0.00;0.00;;;;;;;10.70;100.00;100366.63;5071269;28;20166;-76
2022/10/23 02:58:15;;;;;;;0.00;0.00;;;;;;;10.81;100.00;100358.13;5071000;28;20205;-76
2022/10/23 03:00:45;;;;;;;0.00;0.00;;;;;;;10.73;100.00;100357.81;5071322;28;20205;-76
2022/10/23 03:03:16;;;;;;;0.00;0.00;;;;;;;10.73;100.00;100360.53;5070925;28;20214;-76
2022/10/23 03:05:43;;;;;;;0.43;0.43;;;;;;;10.64;100.00;100361.59;5070863;28;20178;-77
2022/10/23 03:08:10;;;;;;;0.00;0.00;;;;;;;10.59;100.00;100364.47;5071215;28;20510;-77
2022/10/23 03:10:36;;;;;;;0.00;0.00;;;;;;;10.66;100.00;100362.09;5071262;28;20175;-76
2022/10/23 03:13:01;;;;;;;0.30;0.30;;;;;;;10.89;100.00;100349.97;5071145;28;20543;-76
2022/10/23 03:15:26;;;;;;;0.00;0.00;;;;;;;10.95;100.00;100347.91;5071389;28;20198;-76
2022/10/23 03:17:52;;;;;;;0.00;0.00;;;;;;;11.03;100.00;100331.53;5070776;28;20609;-76
2022/10/23 03:20:17;;;;;;;0.00;0.00;;;;;;;11.10;100.00;100342.00;5071139;28;20171;-76
2022/10/23 03:22:43;;;;;;;0.00;0.00;;;;;;;11.14;100.00;100334.81;5070859;28;20194;-76
2022/10/23 03:25:08;;;;;;;0.00;0.00;;;;;;;11.14;100.00;100340.28;5070954;28;20257;-77
2022/10/23 03:27:34;;;;;;;0.00;0.00;;;;;;;10.89;100.00;100328.13;5070879;28;20197;-77
2022/10/23 03:29:59;;;;;;;0.00;0.00;;;;;;;10.96;100.00;100333.91;5071310;28;20524;-76
2022/10/23 03:32:25;;;;;;;0.00;0.00;;;;;;;11.00;100.00;100339.59;5071045;28;20247;-77
2022/10/23 03:34:50;;;;;;;0.00;0.00;;;;;;;11.01;100.00;100333.00;5070907;28;20173;-77
2022/10/23 03:37:15;;;;;;;0.00;0.00;;;;;;;11.07;100.00;100328.16;5070680;28;20181;-77
2022/10/23 03:39:41;;;;;;;0.43;0.43;;;;;;;11.30;100.00;100335.97;5070798;28;20198;-76
2022/10/23 03:42:06;;;;;;;0.00;0.00;;;;;;;11.49;100.00;100334.84;5070636;28;20914;-76
2022/10/23 03:44:32;;;;;;;0.00;0.00;;;;;;;11.57;100.00;100321.19;5070647;28;20177;-76
2022/10/23 03:46:58;;;;;;;0.00;0.00;;;;;;;11.65;100.00;100330.53;5070471;28;20170;-76
2022/10/23 03:49:23;;;;;;;0.00;0.00;;;;;;;11.67;100.00;100331.00;5070903;28;20250;-76
2022/10/23 03:51:51;;;;;;;0.10;0.10;;;;;;;11.66;100.00;100323.91;5070727;28;20253;-77
2022/10/23 03:54:25;;;;;;;0.00;0.00;;;;;;;11.68;100.00;100316.19;5070556;28;20188;-76
2022/10/23 03:56:51;;;;;;;0.00;0.00;;;;;;;11.67;100.00;100319.25;5070668;28;20185;-76
2022/10/23 03:59:16;;;;;;;0.00;0.00;;;;;;;11.65;100.00;100316.84;5070728;28;20162;-77
2022/10/23 04:01:41;;;;;;;1.13;0.83;;;;;;;11.68;100.00;100318.94;5070639;28;20205;-76
2022/10/23 04:04:07;;;;;;;0.00;0.00;;;;;;;11.60;100.00;100320.56;5070270;28;20167;-76
2022/10/23 04:06:32;;;;;;;0.00;0.00;;;;;;;11.59;100.00;100316.22;5070276;28;20174;-76
2022/10/23 04:08:57;;;;;;;2.63;0.60;;;;;;;11.72;100.00;100322.66;5070634;28;20202;-76
2022/10/23 04:11:23;;;;;;;0.40;0.27;;;;;;;11.75;100.00;100322.00;5070282;28;20280;-75
2022/10/23 04:13:48;;;;;;;0.00;0.00;;;;;;;11.80;100.00;100323.78;5070588;28;20249;-76
2022/10/23 04:16:14;;;;;;;0.00;0.00;;;;;;;11.78;100.00;100324.09;5070071;28;20182;-76
2022/10/23 04:18:40;;;;;;;1.00;0.57;;;;;;;11.79;100.00;100320.25;5072358;28;20574;-76
2022/10/23 04:21:05;;;;;;;0.10;0.10;;;;;;;11.83;100.00;100328.63;5074296;28;20193;-75
2022/10/23 04:23:31;;;;;;;0.93;0.93;;;;;;;11.85;100.00;100329.91;5074219;28;20170;-76
2022/10/23 04:25:56;;;;;;;0.00;0.00;;;;;;;11.85;100.00;100326.34;5073885;28;20171;-76
2022/10/23 04:28:22;;;;;;;0.40;0.40;;;;;;;11.84;100.00;100327.50;5074270;28;20585;-76
2022/10/23 04:30:47;;;;;;;0.23;0.23;;;;;;;11.85;100.00;100329.91;5074046;28;20646;-76
2022/10/23 04:33:13;;;;;;;1.00;1.00;;;;;;;11.85;100.00;100323.63;5074023;28;20265;-76
2022/10/23 04:35:38;;;;;;;0.20;0.20;;;;;;;11.84;100.00;100325.56;5073780;28;20182;-76
2022/10/23 04:38:03;;;;;;;3.30;1.10;;;;;;;11.81;100.00;100328.94;5074133;28;20213;-76
2022/10/23 04:40:29;;;;;;;0.00;0.00;;;;;;;11.79;100.00;100320.25;5074133;28;20182;-76
2022/10/23 04:42:54;;;;;;;0.10;0.10;;;;;;;11.78;100.00;100317.81;5073707;28;20217;-76
2022/10/23 04:45:19;;;;;;;0.00;0.00;;;;;;;11.82;100.00;100327.00;5073749;28;20634;-76
2022/10/23 04:47:45;;;;;;;0.83;0.73;;;;;;;11.84;100.00;100322.81;5073607;28;20185;-75
2022/10/23 04:50:10;;;;;;;0.00;0.00;;;;;;;11.87;100.00;100326.88;5073776;28;20236;-76
2022/10/23 04:52:35;;;;;;;0.00;0.00;;;;;;;11.87;100.00;100315.91;5073612;28;20193;-76
2022/10/23 04:55:00;;;;;;;0.20;0.20;;;;;;;11.88;100.00;100312.84;5073609;28;20170;-76
2022/10/23 04:57:26;;;;;;;0.40;0.40;;;;;;;11.88;100.00;100317.53;5073208;28;20193;-76
2022/10/23 04:59:51;;;;;;;0.00;0.00;;;;;;;11.89;100.00;100321.88;5073547;28;20641;-76
2022/10/23 05:02:16;;;;;;;0.07;0.07;;;;;;;11.89;100.00;100319.94;5073094;28;20268;-76
2022/10/23 05:04:41;;;;;;;0.00;0.00;;;;;;;11.87;100.00;100318.66;5073313;28;20540;-76
2022/10/23 05:07:07;;;;;;;0.17;0.17;;;;;;;11.88;100.00;100323.00;5073382;28;20216;-76
2022/10/23 05:09:32;;;;;;;0.00;0.00;;;;;;;11.83;100.00;100314.94;5073662;28;20532;-76
2022/10/23 05:11:57;;;;;;;0.00;0.00;;;;;;;11.88;100.00;100312.06;5073563;28;20222;-76
2022/10/23 05:14:22;;;;;;;0.03;0.03;;;;;;;11.94;100.00;100318.16;5074846;28;20228;-77
2022/10/23 05:17:20;;;;;;;0.00;0.00;;;;;;;11.97;100.00;100312.03;5078148;28;20685;-76
2022/10/23 05:19:53;;;;;;;0.10;0.10;;;;;;;11.93;100.00;100294.66;5065734;28;20258;-76
2022/10/23 05:22:21;;;;;;;0.20;0.20;;;;;;;11.95;100.00;100300.59;5074106;28;20206;-77
2022/10/23 05:24:47;;;;;;;0.00;0.00;;;;;;;11.98;100.00;100299.94;5073379;28;20174;-76
2022/10/23 05:27:13;;;;;;;0.03;0.03;;;;;;;11.98;100.00;100294.47;5055010;28;20611;-76
2022/10/23 05:29:38;;;;;;;0.07;0.07;;;;;;;11.99;100.00;100293.34;5073095;28;20231;-76
2022/10/23 05:32:07;;;;;;;0.20;0.20;;;;;;;11.99;100.00;100293.34;5073279;28;20723;-76
2022/10/23 05:34:35;;;;;;;0.00;0.00;;;;;;;12.02;100.00;100289.97;5054899;28;20749;-76
2022/10/23 05:37:02;;;;;;;0.00;0.00;;;;;;;12.02;100.00;100292.72;5073169;28;20177;-76
2022/10/23 05:39:27;;;;;;;0.00;0.00;;;;;;;12.02;100.00;100298.19;5072859;28;20209;-76
2022/10/23 05:41:53;;;;;;;0.00;0.00;;;;;;;11.98;100.00;100298.00;5072756;28;20230;-76
2022/10/23 05:44:19;;;;;;;0.00;0.00;;;;;;;12.01;100.00;100299.31;5072732;28;20179;-76
2022/10/23 05:46:45;;;;;;;0.00;0.00;;;;;;;12.07;100.00;100295.28;5072486;28;20529;-76
2022/10/23 05:49:10;;;;;;;0.00;0.00;;;;;;;12.16;100.00;100298.81;5072676;28;20171;-76
2022/10/23 05:51:37;;;;;;;0.20;0.20;;;;;;;12.18;100.00;100296.53;5072603;28;20707;-76
2022/10/23 05:54:02;;;;;;;0.00;0.00;;;;;;;12.17;100.00;100292.19;5072454;28;20693;-76
2022/10/23 05:56:28;;;;;;;34.60;1.20;;;;;;;12.18;100.00;100302.03;5072367;28;20277;-76
2022/10/23 05:58:53;;;;;;;0.00;0.00;;;;;;;12.23;100.00;100298.28;5072381;28;20235;-76
2022/10/23 06:01:19;;;;;;;0.00;0.00;;;;;;;12.20;100.00;100295.09;5072422;28;20174;-76
2022/10/23 06:03:44;;;;;;;0.00;0.00;;;;;;;12.25;100.00;100283.13;5072231;28;20262;-76
2022/10/23 06:06:09;;;;;;;0.00;0.00;;;;;;;12.21;100.00;100288.47;5072111;28;20174;-76
2022/10/23 06:08:35;;;;;;;0.00;0.00;;;;;;;12.27;100.00;100294.56;5072117;28;20535;-77
2022/10/23 06:11:11;;;;;;;0.13;0.13;;;;;;;12.29;100.00;100295.03;5072346;28;20186;-76
2022/10/23 06:13:37;;;;;;;0.10;0.10;;;;;;;12.29;100.00;100291.50;5072247;28;20190;-76
2022/10/23 06:16:14;;;;;;;0.00;0.00;;;;;;;12.28;100.00;100295.38;5072537;28;20174;-76
2022/10/23 06:18:40;;;;;;;0.00;0.00;;;;;;;12.23;100.00;100292.81;5072574;28;20618;-76
2022/10/23 06:21:06;;;;;;;0.00;0.00;;;;;;;12.26;100.00;100290.22;5072603;28;20178;-76
2022/10/23 06:23:33;;;;;;;0.00;0.00;;;;;;;12.27;100.00;100291.03;5072360;28;20649;-77
2022/10/23 06:25:59;;;;;;;0.00;0.00;;;;;;;12.30;100.00;100302.16;5071935;28;20179;-76
2022/10/23 06:28:24;;;;;;;0.00;0.00;;;;;;;12.26;100.00;100301.19;5071964;28;20544;-76
2022/10/23 06:30:50;;;;;;;0.00;0.00;;;;;;;12.25;100.00;100290.56;5071778;28;20243;-76
2022/10/23 06:33:15;;;;;;;0.00;0.00;;;;;;;12.25;100.00;100290.56;5071981;28;20277;-76
2022/10/23 06:35:40;;;;;;;0.00;0.00;;;;;;;12.30;100.00;100279.44;5071540;28;20178;-76
2022/10/23 06:38:07;;;;;;;0.87;0.87;;;;;;;12.38;100.00;100279.41;5071617;28;20182;-77
2022/10/23 06:40:33;;;;;;;0.00;0.00;;;;;;;12.43;100.00;100281.94;5071209;28;20395;-77
2022/10/23 06:42:58;;;;;;;0.00;0.00;;;;;;;12.32;100.00;100277.19;5053553;28;20206;-77
2022/10/23 06:45:23;;;;;;;0.00;0.00;;;;;;;12.35;100.00;100280.06;5071412;28;20262;-76
2022/10/23 06:47:50;;;;;;;0.00;0.00;;;;;;;12.44;100.00;100286.31;5071250;28;20170;-76
2022/10/23 06:50:15;;;;;;;0.00;0.00;;;;;;;12.44;100.00;100283.59;5071390;28;20178;-76
2022/10/23 06:52:40;;;;;;;0.00;0.00;;;;;;;12.52;100.00;100280.00;5071363;28;20174;-76
2022/10/23 06:55:06;;;;;;;0.00;0.00;;;;;;;12.57;100.00;100289.16;5071355;28;20173;-77
2022/10/23 06:57:32;;;;;;;0.00;0.00;;;;;;;12.58;100.00;100282.53;5071159;28;20676;-76
2022/10/23 06:59:58;;;;;;;0.00;0.00;;;;;;;12.63;100.00;100280.44;5071295;28;20174;-76
2022/10/23 07:02:23;;;;;;;0.00;0.00;;;;;;;12.62;100.00;100289.00;5071136;28;20202;-76
2022/10/23 07:04:48;;;;;;;0.00;0.00;;;;;;;12.66;100.00;100284.44;5071099;28;20638;-76
2022/10/23 07:07:14;;;;;;;0.00;0.00;;;;;;;12.59;100.00;100282.25;5071267;28;20183;-76
2022/10/23 07:09:39;;;;;;;0.00;0.00;;;;;;;12.54;100.00;100282.41;5071137;28;20725;-77
2022/10/23 07:12:04;;;;;;;0.00;0.00;;;;;;;12.46;100.00;100275.84;5071079;28;20178;-77
2022/10/23 07:14:31;;;;;;;0.00;0.00;;;;;;;12.57;100.00;100281.72;5070882;28;20175;-76
2022/10/23 07:16:56;;;;;;;0.00;0.00;;;;;;;12.59;100.00;100268.53;5070688;28;20178;-76
2022/10/23 07:19:22;;;;;;;0.00;0.00;;;;;;;12.60;100.00;100266.59;5071063;28;20645;-76
2022/10/23 07:21:47;;;;;;;0.30;0.30;;;;;;;12.52;100.00;100266.28;5052817;28;20198;-76
2022/10/23 07:24:12;;;;;;;0.00;0.00;;;;;;;12.63;100.00;100265.94;5070750;28;20186;-76
2022/10/23 07:26:38;;;;;;;0.10;0.10;;;;;;;12.62;100.00;100251.44;5070825;28;20173;-76
2022/10/23 07:29:03;;;;;;;0.00;0.00;;;;;;;12.59;100.00;100240.31;5070677;28;20178;-77
2022/10/23 07:31:28;;;;;;;0.00;0.00;;;;;;;12.55;100.00;100253.06;5070368;28;20274;-76
2022/10/23 07:33:54;;;;;;;0.00;0.00;;;;;;;12.67;100.00;100259.44;5070392;28;20204;-76
2022/10/23 07:36:19;;;;;;;0.00;0.00;;;;;;;12.69;100.00;100264.59;5070020;28;20649;-76
2022/10/23 07:38:45;;;;;;;0.00;0.00;;;;;;;12.74;100.00;100275.41;5070427;28;20175;-76
2022/10/23 07:41:11;;;;;;;0.00;0.00;;;;;;;12.70;100.00;100267.00;5070251;28;20178;-77
2022/10/23 07:43:37;;;;;;;0.00;0.00;;;;;;;12.67;100.00;100269.63;5070319;28;20174;-76
2022/10/23 07:46:02;;;;;;;0.10;0.10;;;;;;;12.73;100.00;100269.13;5051550;28;20205;-77
2022/10/23 07:48:28;;;;;;;0.30;0.30;;;;;;;12.82;100.00;100267.13;5070117;28;20178;-76
2022/10/23 07:50:57;;;;;;;0.00;0.00;;;;;;;12.83;100.00;100256.94;5070146;28;20200;-76
2022/10/23 07:53:24;;;;;;;0.00;0.00;;;;;;;12.81;100.00;100257.28;5071913;28;20185;-75
2022/10/23 07:55:52;;;;;;;0.00;0.00;;;;;;;12.87;100.00;100259.81;5074023;28;20515;-79
2022/10/23 07:58:18;;;;;;;0.00;0.00;;;;;;;12.95;100.00;100261.72;5074253;28;20209;-76
2022/10/23 08:00:44;;;;;;;0.37;0.37;;;;;;;13.00;100.00;100265.06;5074315;28;20650;-80
2022/10/23 08:03:11;;;;;;;0.00;0.00;;;;;;;13.03;100.00;100261.69;5074007;28;20213;-79
2022/10/23 08:05:37;;;;;;;0.10;0.10;;;;;;;13.02;100.00;100256.53;5074161;28;20202;-79
2022/10/23 08:08:02;;;;;;;0.00;0.00;;;;;;;13.04;100.00;100257.00;5074428;28;20562;-79
2022/10/23 08:10:27;;;;;;;0.00;0.00;;;;;;;13.19;100.00;100247.41;5074408;28;20219;-80
2022/10/23 08:12:53;;;;;;;0.00;0.00;;;;;;;13.21;100.00;100254.19;5056196;28;20277;-80
2022/10/23 08:15:18;;;;;;;0.30;0.30;;;;;;;13.31;100.00;100256.53;5074011;28;20214;-80
2022/10/23 08:17:43;;;;;;;0.00;0.00;;;;;;;13.31;100.00;100247.50;5073770;28;20170;-80
2022/10/23 08:20:09;;;;;;;0.00;0.00;;;;;;;13.47;100.00;100259.47;5074024;28;20644;-77
2022/10/23 08:22:36;;;;;;;0.00;0.00;;;;;;;13.48;100.00;100258.34;5073841;28;20248;-75
2022/10/23 08:25:01;;;;;;;0.00;0.00;;;;;;;13.61;100.00;100262.75;5073621;28;20265;-75
2022/10/23 08:27:26;;;;;;;0.00;0.00;;;;;;;13.67;100.00;100255.91;5073476;28;20702;-75
2022/10/23 08:29:52;;;;;;;0.00;0.00;;;;;;;13.67;100.00;100252.34;5073716;28;20175;-75
2022/10/23 08:32:17;;;;;;;0.00;0.00;;;;;;;13.85;100.00;100251.03;5074078;28;20650;-74
2022/10/23 08:34:42;;;;;;;0.17;0.17;;;;;;;13.95;100.00;100252.56;5073576;28;20171;-74
2022/10/23 08:37:08;;;;;;;0.40;0.40;;;;;;;13.92;100.00;100245.81;5073362;28;20175;-75
2022/10/23 08:39:33;;;;;;;0.00;0.00;;;;;;;14.09;100.00;100252.28;5073568;28;20224;-75
2022/10/23 08:41:58;;;;;;;0.00;0.00;;;;;;;13.98;100.00;100247.19;5055415;28;20210;-74
2022/10/23 08:44:31;;;;;;;0.00;0.00;;;;;;;14.11;100.00;100260.97;5073380;28;20257;-73
2022/10/23 08:47:27;;;;;;;0.00;0.00;;;;;;;14.14;100.00;100250.09;5055578;28;20189;-73
2022/10/23 08:50:05;;;;;;;0.00;0.00;;;;;;;14.22;100.00;100249.22;5039771;28;20253;-73
2022/10/23 08:52:51;;;;;;;0.60;0.50;;;;;;;14.29;100.00;100248.63;5073718;28;20209;-73
2022/10/23 08:55:19;;;;;;;0.40;0.10;;;;;;;14.35;100.00;100249.25;5073588;28;20182;-73
2022/10/23 08:58:02;;;;;;;0.10;0.10;;;;;;;14.39;100.00;100252.91;5073291;28;20602;-73
2022/10/23 09:00:28;;;;;;;0.23;0.23;;;;;;;14.48;100.00;100237.16;5073429;28;20162;-73
2022/10/23 09:02:54;;;;;;;0.20;0.20;;;;;;;14.49;100.00;100238.75;5073233;28;20795;-74
2022/10/23 09:05:57;;;;;;;0.27;0.27;;;;;;;14.56;99.90;100241.72;5054975;28;20177;-73
2022/10/23 09:08:51;;;;;;;0.50;0.40;;;;;;;14.67;98.93;100231.88;5073467;28;20166;-73
2022/10/23 09:11:23;;;;;;;0.00;0.00;;;;;;;14.72;97.73;100236.34;5073493;28;20209;-73
2022/10/23 09:14:28;;;;;;;0.53;0.53;;;;;;;14.77;98.39;100245.19;5055261;28;20236;-73
2022/10/23 09:17:09;;;;;;;0.13;0.07;;;;;;;14.80;98.16;100240.94;5073437;28;20179;-73
2022/10/23 09:19:34;;;;;;;0.00;0.00;;;;;;;14.89;98.16;100236.88;5073248;28;20175;-73
2022/10/23 09:22:00;;;;;;;0.10;0.10;;;;;;;14.86;97.78;100247.78;5072867;28;20304;-73
2022/10/23 09:24:30;;;;;;;0.00;0.00;;;;;;;14.87;96.87;100243.88;5072239;28;20187;-73
2022/10/23 09:26:56;;;;;;;0.23;0.23;;;;;;;14.83;95.97;100240.22;5072716;28;20208;-73
2022/10/23 09:29:27;;;;;;;0.10;0.10;;;;;;;14.87;96.25;100243.88;5082757;28;20173;-73
2022/10/23 09:31:55;;;;;;;0.90;0.53;;;;;;;14.91;95.56;100238.53;5064789;28;20521;-74
2022/10/23 09:34:26;;;;;;;0.00;0.00;;;;;;;14.88;95.09;100243.53;5072955;28;20532;-73
2022/10/23 09:36:58;;;;;;;0.00;0.00;;;;;;;14.89;95.46;100239.66;5069133;28;20177;-73
2022/10/23 09:39:27;;;;;;;0.00;0.00;;;;;;;14.94;95.11;100229.56;5074867;28;20174;-73
2022/10/23 09:41:53;;;;;;;0.20;0.20;;;;;;;14.98;94.40;100239.53;5092807;28;20202;-73
2022/10/23 09:44:33;;;;;;;0.00;0.00;;;;;;;14.98;93.77;100252.50;5073465;28;20524;-73
2022/10/23 09:47:08;;;;;;;0.17;0.17;;;;;;;15.05;93.58;100250.78;5072450;28;20205;-73
2022/10/23 09:49:34;;;;;;;0.00;0.00;;;;;;;15.03;92.90;100247.53;5072591;28;20170;-73
2022/10/23 09:52:04;;;;;;;0.00;0.00;;;;;;;15.12;92.24;100239.97;5072477;28;20638;-73
2022/10/23 09:54:32;;;;;;;0.53;0.23;;;;;;;15.20;91.87;100241.00;5072356;28;20178;-73
2022/10/23 09:57:05;;;;;;;0.00;0.00;;;;;;;15.25;91.31;100238.00;5072151;28;20615;-73
2022/10/23 09:59:31;;;;;;;0.00;0.00;;;;;;;15.27;91.26;100235.69;5072399;28;20265;-73
2022/10/23 10:01:59;;;;;;;0.03;0.03;;;;;;;15.29;90.38;100238.09;5072339;28;20653;-73
2022/10/23 10:04:36;;;;;;;0.90;0.20;;;;;;;15.31;89.99;100231.09;5071813;28;20174;-73
2022/10/23 10:07:05;;;;;;;0.00;0.00;;;;;;;15.27;90.51;100227.44;5072062;28;20181;-73
2022/10/23 10:09:30;;;;;;;0.00;0.00;;;;;;;15.30;90.56;100217.69;5054319;28;20186;-71
2022/10/23 10:12:14;;;;;;;0.00;0.00;;;;;;;15.29;90.75;100218.81;5072234;28;20175;-73
2022/10/23 10:14:47;;;;;;;0.50;0.30;;;;;;;15.36;90.51;100210.78;5071635;28;20193;-74
2022/10/23 10:17:22;;;;;;;4.43;0.20;;;;;;;15.38;90.32;100216.75;5071044;28;20175;-74
2022/10/23 10:20:11;;;;;;;0.00;0.00;;;;;;;15.35;90.96;100217.44;5072140;28;20178;-74
2022/10/23 10:23:04;;;;;;;0.00;0.00;;;;;;;15.34;91.34;100207.59;5071784;28;20289;-74
2022/10/23 10:25:42;;;;;;;0.00;0.00;;;;;;;15.40;91.12;100206.19;5071650;28;20182;-73
2022/10/23 10:28:34;;;;;;;0.00;0.00;;;;;;;15.44;90.64;100199.63;5071716;28;20174;-73
2022/10/23 10:31:36;;;;;;;0.00;0.00;;;;;;;15.50;90.86;100199.38;5020334;28;20658;-74
2022/10/23 10:34:39;;;;;;;0.00;0.00;;;;;;;15.62;90.01;100207.59;5071665;28;20181;-75
2022/10/23 10:37:18;;;;;;;0.00;0.00;;;;;;;15.68;89.84;100201.50;5071257;28;20186;-73
2022/10/23 10:40:25;;;;;;;0.33;0.33;;;;;;;15.70;88.68;100196.44;5071521;28;20169;-73
2022/10/23 10:43:16;;;;;;;0.00;0.00;;;;;;;15.82;88.07;100184.56;5053866;28;20237;-74
2022/10/23 10:45:47;;;;;;;0.00;0.00;;;;;;;15.72;88.29;100177.59;5066100;28;20194;-73
2022/10/23 10:48:28;;;;;;;0.00;0.00;;;;;;;15.79;88.53;100179.78;5071375;28;20213;-73
2022/10/23 10:51:05;;;;;;;0.00;0.00;;;;;;;15.91;88.29;100170.59;5071304;28;20182;-74
2022/10/23 10:53:54;;;;;;;0.00;0.00;;;;;;;15.97;88.29;100170.00;5071458;28;20269;-73
2022/10/23 10:56:23;;;;;;;0.00;0.00;;;;;;;16.04;87.60;100170.19;5070816;28;20193;-74
2022/10/23 10:58:57;;;;;;;0.00;0.00;;;;;;;16.06;88.10;100164.34;5071084;28;20182;-74
2022/10/23 11:01:33;;;;;;;0.00;0.00;;;;;;;16.12;87.60;100164.88;5071042;28;20178;-72
2022/10/23 11:04:10;;;;;;;0.00;0.00;;;;;;;16.21;87.26;100165.50;5052926;28;20273;-73
2022/10/23 11:06:36;;;;;;;0.00;0.00;;;;;;;16.17;87.45;100151.59;5070820;28;20201;-73
2022/10/23 11:09:14;;;;;;;0.00;0.00;;;;;;;16.29;87.09;100164.50;5036424;28;20727;-73
2022/10/23 11:11:40;;;;;;;0.03;0.03;;;;;;;16.36;86.26;100164.69;5070991;28;20182;-72
2022/10/23 11:14:13;;;;;;;0.00;0.00;;;;;;;16.35;86.52;100146.53;5052864;28;20186;-72
2022/10/23 11:16:41;;;;;;;0.00;0.00;;;;;;;16.36;86.89;100140.66;5071035;28;20209;-73
2022/10/23 11:19:22;;;;;;;0.57;0.57;;;;;;;16.46;87.23;100139.31;5071038;28;20178;-73
2022/10/23 11:21:58;;;;;;;0.00;0.00;;;;;;;16.48;86.52;100134.22;5070710;28;20665;-72
2022/10/23 11:24:59;;;;;;;0.00;0.00;;;;;;;16.63;84.68;100119.59;5070947;28;20175;-73
2022/10/23 11:27:30;;;;;;;0.00;0.00;;;;;;;16.84;83.88;100127.59;4998043;28;20224;-72
2022/10/23 11:30:02;;;;;;;0.00;0.00;;;;;;;17.05;83.30;100121.72;5052783;28;20193;-72
2022/10/23 11:32:42;;;;;;;0.67;0.43;;;;;;;17.15;83.88;100118.38;5070630;28;20170;-72